createdAt,value
2018-04-15T00:00:38.149Z,0.00
2018-04-15T00:01:38.189Z,0.00
2018-04-15T00:02:38.115Z,0.00
2018-04-15T00:03:38.140Z,0.00
2018-04-15T00:04:38.071Z,0.00
2018-04-15T00:05:38.054Z,0.00
2018-04-15T00:06:38.040Z,0.00
2018-04-15T00:07:38.016Z,0.00
2018-04-15T00:08:37.997Z,0.00
2018-04-15T00:09:38.076Z,0.00
2018-04-15T00:10:37.959Z,0.00
2018-04-15T00:11:37.937Z,0.00
2018-04-15T00:12:37.925Z,0.00
2018-04-15T00:13:37.898Z,0.00
2018-04-15T00:14:37.880Z,0.00
2018-04-15T00:15:37.907Z,0.00
2018-04-15T00:16:37.889Z,0.00
2018-04-15T00:17:37.817Z,0.00
2018-04-15T00:18:37.801Z,0.00
2018-04-15T00:19:37.782Z,0.00
2018-04-15T00:20:37.761Z,0.00
2018-04-15T00:21:37.812Z,0.00
2018-04-15T00:22:37.722Z,0.00
2018-04-15T00:23:37.707Z,0.00
2018-04-15T00:24:37.688Z,0.00
2018-04-15T00:25:37.670Z,0.00
2018-04-15T00:26:37.650Z,0.00
2018-04-15T00:27:37.685Z,0.00
2018-04-15T00:28:37.714Z,0.00
2018-04-15T00:29:37.595Z,0.00
2018-04-15T00:30:37.576Z,0.00
2018-04-15T00:31:37.569Z,0.00
2018-04-15T00:33:37.570Z,0.00
2018-04-15T00:34:37.497Z,0.00
2018-04-15T00:35:37.487Z,0.00
2018-04-15T00:36:37.458Z,0.00
2018-04-15T00:37:37.590Z,0.00
2018-04-15T00:38:37.428Z,0.00
2018-04-15T00:39:37.398Z,0.00
2018-04-15T00:40:37.385Z,0.00
2018-04-15T00:41:37.363Z,0.00
2018-04-15T00:42:37.343Z,0.00
2018-04-15T00:43:37.455Z,0.00
2018-04-15T00:44:37.311Z,0.00
2018-04-15T00:45:37.293Z,0.00
2018-04-15T00:46:37.272Z,0.00
2018-04-15T00:47:37.248Z,0.00
2018-04-15T00:48:37.228Z,0.00
2018-04-15T00:49:37.260Z,0.00
2018-04-15T00:50:37.194Z,0.00
2018-04-15T00:51:37.168Z,0.00
2018-04-15T00:52:37.154Z,0.00
2018-04-15T00:53:37.135Z,0.00
2018-04-15T00:54:37.114Z,0.00
2018-04-15T00:55:37.151Z,0.00
2018-04-15T00:56:37.081Z,0.00
2018-04-15T00:57:37.061Z,0.00
2018-04-15T00:58:37.037Z,0.00
2018-04-15T00:59:37.017Z,0.00
2018-04-15T01:00:37.001Z,0.00
2018-04-15T01:01:37.031Z,0.00
2018-04-15T01:02:37.013Z,0.00
2018-04-15T01:03:36.957Z,0.00
2018-04-15T01:04:36.922Z,0.00
2018-04-15T01:05:36.917Z,0.00
2018-04-15T01:06:36.934Z,0.00
2018-04-15T01:07:36.917Z,0.00
2018-04-15T01:08:36.848Z,0.00
2018-04-15T01:09:36.826Z,0.00
2018-04-15T01:10:36.811Z,0.00
2018-04-15T01:11:36.791Z,0.00
2018-04-15T01:12:36.777Z,0.00
2018-04-15T01:13:36.809Z,0.00
2018-04-15T01:14:36.790Z,0.00
2018-04-15T01:15:36.724Z,0.00
2018-04-15T01:16:37.394Z,0.00
2018-04-15T01:17:36.729Z,0.00
2018-04-15T01:18:36.659Z,0.00
2018-04-15T01:19:36.635Z,0.00
2018-04-15T01:20:36.614Z,0.00
2018-04-15T01:21:36.594Z,0.00
2018-04-15T01:22:36.577Z,0.00
2018-04-15T01:23:36.615Z,0.00
2018-04-15T01:24:36.545Z,0.00
2018-04-15T01:26:36.805Z,0.00
2018-04-15T01:27:36.479Z,0.00
2018-04-15T01:28:36.476Z,0.00
2018-04-15T01:29:36.491Z,0.00
2018-04-15T01:30:36.420Z,0.00
2018-04-15T01:32:36.381Z,0.00
2018-04-15T01:33:36.366Z,0.00
2018-04-15T01:34:36.346Z,0.00
2018-04-15T01:35:36.427Z,0.00
2018-04-15T01:36:36.615Z,0.00
2018-04-15T01:37:36.336Z,0.00
2018-04-15T01:38:36.270Z,0.00
2018-04-15T01:39:36.245Z,0.00
2018-04-15T01:40:36.227Z,0.00
2018-04-15T01:42:36.343Z,0.00
2018-04-15T01:43:36.166Z,0.00
2018-04-15T01:44:36.149Z,0.00
2018-04-15T01:45:36.127Z,0.00
2018-04-15T01:46:36.111Z,0.00
2018-04-15T01:47:36.090Z,0.00
2018-04-15T01:48:36.425Z,0.00
2018-04-15T01:49:36.049Z,0.00
2018-04-15T01:50:36.332Z,0.00
2018-04-15T01:51:36.012Z,0.00
2018-04-15T01:52:36.001Z,0.00
2018-04-15T01:53:35.970Z,0.00
2018-04-15T01:54:36.710Z,0.00
2018-04-15T01:55:35.932Z,0.00
2018-04-15T01:56:35.911Z,0.00
2018-04-15T01:57:35.891Z,0.00
2018-04-15T01:58:35.876Z,0.00
2018-04-15T01:59:35.857Z,0.00
2018-04-15T02:00:35.934Z,0.00
2018-04-15T02:01:36.115Z,0.00
2018-04-15T02:02:35.795Z,0.00
2018-04-15T02:03:35.778Z,0.00
2018-04-15T02:04:35.758Z,0.00
2018-04-15T02:05:35.740Z,0.00
2018-04-15T02:06:35.769Z,0.00
2018-04-15T02:07:35.725Z,0.00
2018-04-15T02:08:35.679Z,0.00
2018-04-15T02:09:35.662Z,0.00
2018-04-15T02:10:35.638Z,0.00
2018-04-15T02:11:35.628Z,0.00
2018-04-15T02:12:35.653Z,0.00
2018-04-15T02:13:35.734Z,0.00
2018-04-15T02:14:35.560Z,0.00
2018-04-15T02:15:35.544Z,0.00
2018-04-15T02:16:35.527Z,0.00
2018-04-15T02:17:35.503Z,0.00
2018-04-15T02:18:35.483Z,0.00
2018-04-15T02:19:35.516Z,0.00
2018-04-15T02:20:35.441Z,0.00
2018-04-15T02:21:35.423Z,0.00
2018-04-15T02:22:35.406Z,0.00
2018-04-15T02:23:35.486Z,0.00
2018-04-15T02:24:35.365Z,0.00
2018-04-15T02:25:35.395Z,0.00
2018-04-15T02:26:35.326Z,0.00
2018-04-15T02:27:35.758Z,0.00
2018-04-15T02:28:35.297Z,0.00
2018-04-15T02:29:35.267Z,0.00
2018-04-15T02:30:35.256Z,0.00
2018-04-15T02:31:35.227Z,0.00
2018-04-15T02:32:35.214Z,0.00
2018-04-15T02:33:35.240Z,0.00
2018-04-15T02:34:35.170Z,0.00
2018-04-15T02:35:35.146Z,0.00
2018-04-15T02:36:35.128Z,0.00
2018-04-15T02:37:35.110Z,0.00
2018-04-15T02:38:35.099Z,0.00
2018-04-15T02:39:35.119Z,0.00
2018-04-15T02:40:35.050Z,0.00
2018-04-15T02:42:35.362Z,0.00
2018-04-15T02:43:34.989Z,0.00
2018-04-15T02:44:34.970Z,0.00
2018-04-15T02:45:34.952Z,0.00
2018-04-15T02:46:35.031Z,0.00
2018-04-15T02:47:34.909Z,0.00
2018-04-15T02:48:34.946Z,0.00
2018-04-15T02:49:34.879Z,0.00
2018-04-15T02:50:34.861Z,0.00
2018-04-15T02:51:34.832Z,0.00
2018-04-15T02:52:34.811Z,0.00
2018-04-15T02:53:34.793Z,0.00
2018-04-15T02:54:34.823Z,0.00
2018-04-15T02:55:34.752Z,0.00
2018-04-15T02:56:34.734Z,0.00
2018-04-15T02:57:34.717Z,0.00
2018-04-15T02:58:34.745Z,0.00
2018-04-15T02:59:34.672Z,0.00
2018-04-15T03:00:34.753Z,0.00
2018-04-15T03:01:34.640Z,0.00
2018-04-15T03:02:34.613Z,0.00
2018-04-15T03:03:34.615Z,0.00
2018-04-15T03:04:34.625Z,0.00
2018-04-15T03:05:34.579Z,0.00
2018-04-15T03:06:34.535Z,0.00
2018-04-15T03:07:34.525Z,0.00
2018-04-15T03:08:34.503Z,0.00
2018-04-15T03:09:34.474Z,0.00
2018-04-15T03:10:34.508Z,0.00
2018-04-15T03:11:34.443Z,0.00
2018-04-15T03:12:34.417Z,0.00
2018-04-15T03:13:34.397Z,0.00
2018-04-15T03:14:34.379Z,0.00
2018-04-15T03:15:34.355Z,0.00
2018-04-15T03:16:34.391Z,0.00
2018-04-15T03:17:34.320Z,0.00
2018-04-15T03:18:34.348Z,0.00
2018-04-15T03:19:34.280Z,0.00
2018-04-15T03:20:34.261Z,0.00
2018-04-15T03:22:34.219Z,0.00
2018-04-15T03:23:34.203Z,0.00
2018-04-15T03:24:34.628Z,0.00
2018-04-15T03:25:34.172Z,0.00
2018-04-15T03:26:34.158Z,0.00
2018-04-15T03:27:34.120Z,0.00
2018-04-15T03:28:34.119Z,0.00
2018-04-15T03:29:34.120Z,0.00
2018-04-15T03:30:34.130Z,0.00
2018-04-15T03:31:34.044Z,0.00
2018-04-15T03:33:34.009Z,0.00
2018-04-15T03:34:33.988Z,0.00
2018-04-15T03:35:34.084Z,0.00
2018-04-15T03:36:34.001Z,0.00
2018-04-15T03:37:33.938Z,0.00
2018-04-15T03:38:33.903Z,0.00
2018-04-15T03:39:34.780Z,0.00
2018-04-15T03:40:33.912Z,0.00
2018-04-15T03:41:33.904Z,0.00
2018-04-15T03:42:33.831Z,0.00
2018-04-15T03:43:33.811Z,0.00
2018-04-15T03:44:35.821Z,0.00
2018-04-15T03:45:33.762Z,0.00
2018-04-15T03:46:33.804Z,0.00
2018-04-15T03:47:33.774Z,0.00
2018-04-15T03:48:33.711Z,0.00
2018-04-15T03:49:34.223Z,0.00
2018-04-15T03:50:33.668Z,0.00
2018-04-15T03:51:33.645Z,4.00
2018-04-15T03:52:33.627Z,4.00
2018-04-15T03:53:33.658Z,0.00
2018-04-15T03:54:33.585Z,0.00
2018-04-15T03:55:33.622Z,4.00
2018-04-15T03:56:33.559Z,4.00
2018-04-15T03:57:33.635Z,4.00
2018-04-15T03:58:33.516Z,4.00
2018-04-15T03:59:33.541Z,4.00
2018-04-15T04:00:33.471Z,4.00
2018-04-15T04:01:33.484Z,8.00
2018-04-15T04:02:33.454Z,8.00
2018-04-15T04:03:33.414Z,8.00
2018-04-15T04:04:33.392Z,8.00
2018-04-15T04:05:33.422Z,12.00
2018-04-15T04:06:33.359Z,12.00
2018-04-15T04:07:33.335Z,16.00
2018-04-15T04:08:33.317Z,16.00
2018-04-15T04:09:33.294Z,20.00
2018-04-15T04:10:33.284Z,24.00
2018-04-15T04:11:33.308Z,24.00
2018-04-15T04:12:33.235Z,28.00
2018-04-15T04:13:33.319Z,32.00
2018-04-15T04:14:33.196Z,36.00
2018-04-15T04:15:33.178Z,40.00
2018-04-15T04:16:33.157Z,44.00
2018-04-15T04:17:33.187Z,48.00
2018-04-15T04:18:33.131Z,52.00
2018-04-15T04:19:33.097Z,56.00
2018-04-15T04:20:33.082Z,60.00
2018-04-15T04:21:33.066Z,68.00
2018-04-15T04:22:33.046Z,72.00
2018-04-15T04:23:33.389Z,76.00
2018-04-15T04:24:33.006Z,84.00
2018-04-15T04:25:32.988Z,92.00
2018-04-15T04:26:32.971Z,100.00
2018-04-15T04:27:32.951Z,112.00
2018-04-15T04:28:33.025Z,120.00
2018-04-15T04:29:33.011Z,128.00
2018-04-15T04:30:32.888Z,144.00
2018-04-15T04:31:32.866Z,156.00
2018-04-15T04:32:32.852Z,176.00
2018-04-15T04:33:32.832Z,196.00
2018-04-15T04:34:32.807Z,212.00
2018-04-15T04:35:32.837Z,220.00
2018-04-15T04:36:32.770Z,236.00
2018-04-15T04:37:32.754Z,252.00
2018-04-15T04:38:32.731Z,268.00
2018-04-15T04:39:32.711Z,292.00
2018-04-15T04:40:32.700Z,320.00
2018-04-15T04:41:32.724Z,348.00
2018-04-15T04:42:32.652Z,372.00
2018-04-15T04:43:32.632Z,392.00
2018-04-15T04:44:32.616Z,416.00
2018-04-15T04:45:32.699Z,444.00
2018-04-15T04:46:32.577Z,472.00
2018-04-15T04:47:32.610Z,500.00
2018-04-15T04:48:32.550Z,540.00
2018-04-15T04:50:32.501Z,620.00
2018-04-15T04:51:32.482Z,656.00
2018-04-15T04:52:32.458Z,680.00
2018-04-15T04:53:32.592Z,704.00
2018-04-15T04:54:32.429Z,732.00
2018-04-15T04:55:32.407Z,748.00
2018-04-15T04:56:32.380Z,768.00
2018-04-15T04:57:32.368Z,784.00
2018-04-15T04:58:32.347Z,812.00
2018-04-15T04:59:32.380Z,832.00
2018-04-15T05:00:32.306Z,860.00
2018-04-15T05:02:32.572Z,928.00
2018-04-15T05:03:32.254Z,972.00
2018-04-15T05:05:32.370Z,1024.00
2018-04-15T05:06:32.546Z,1068.00
2018-04-15T05:07:32.183Z,1120.00
2018-04-15T05:08:32.546Z,1168.00
2018-04-15T05:09:32.147Z,1228.00
2018-04-15T05:10:32.218Z,1272.00
2018-04-15T05:11:32.160Z,1300.00
2018-04-15T05:12:32.082Z,1340.00
2018-04-15T05:13:32.061Z,1396.00
2018-04-15T05:14:32.047Z,1448.00
2018-04-15T05:15:32.027Z,1476.00
2018-04-15T05:16:32.010Z,1476.00
2018-04-15T05:17:32.739Z,1464.00
2018-04-15T05:18:32.103Z,1452.00
2018-04-15T05:19:31.998Z,1424.00
2018-04-15T05:20:31.941Z,1400.00
2018-04-15T05:21:31.915Z,1392.00
2018-04-15T05:23:31.878Z,1372.00
2018-04-15T05:25:32.189Z,1312.00
2018-04-15T05:26:31.822Z,1296.00
2018-04-15T05:27:31.807Z,1300.00
2018-04-15T05:28:31.785Z,1316.00
2018-04-15T05:29:31.770Z,1352.00
2018-04-15T05:30:33.062Z,1380.00
2018-04-15T05:31:31.785Z,1396.00
2018-04-15T05:32:31.711Z,1412.00
2018-04-15T05:33:31.695Z,1444.00
2018-04-15T05:34:31.678Z,1484.00
2018-04-15T05:35:31.961Z,1532.00
2018-04-15T05:36:31.641Z,1596.00
2018-04-15T05:37:31.728Z,1676.00
2018-04-15T05:38:31.601Z,1780.00
2018-04-15T05:39:31.588Z,1884.00
2018-04-15T05:40:31.795Z,1964.00
2018-04-15T05:41:31.547Z,2012.00
2018-04-15T05:43:31.556Z,1980.00
2018-04-15T05:44:31.489Z,1956.00
2018-04-15T05:45:31.478Z,1908.00
2018-04-15T05:46:31.461Z,1860.00
2018-04-15T05:47:31.440Z,1832.00
2018-04-15T05:48:31.416Z,1836.00
2018-04-15T05:49:31.445Z,1872.00
2018-04-15T05:50:31.434Z,1928.00
2018-04-15T05:52:31.343Z,2116.00
2018-04-15T05:53:31.326Z,2188.00
2018-04-15T05:54:31.403Z,2216.00
2018-04-15T05:55:31.382Z,2228.00
2018-04-15T05:56:31.281Z,2220.00
2018-04-15T05:58:31.319Z,2140.00
2018-04-15T06:01:31.250Z,2192.00
2018-04-15T06:02:31.183Z,2212.00
2018-04-15T06:03:31.205Z,2208.00
2018-04-15T06:04:31.134Z,2184.00
2018-04-15T06:05:31.228Z,2168.00
2018-04-15T06:06:31.101Z,2144.00
2018-04-15T06:07:31.079Z,2100.00
2018-04-15T06:08:31.063Z,2064.00
2018-04-15T06:09:31.199Z,2008.00
2018-04-15T06:10:31.024Z,1936.00
2018-04-15T06:11:31.007Z,1896.00
2018-04-15T06:12:30.991Z,1912.00
2018-04-15T06:13:30.973Z,1972.00
2018-04-15T06:14:30.966Z,2084.00
2018-04-15T06:16:30.973Z,2232.00
2018-04-15T06:17:30.906Z,2332.00
2018-04-15T06:18:30.988Z,2456.00
2018-04-15T06:19:30.875Z,2620.00
2018-04-15T06:20:30.851Z,2780.00
2018-04-15T06:21:30.836Z,2836.00
2018-04-15T06:22:30.893Z,2804.00
2018-04-15T06:23:30.811Z,2732.00
2018-04-15T06:24:30.966Z,2620.00
2018-04-15T06:25:30.762Z,2508.00
2018-04-15T06:26:30.745Z,2392.00
2018-04-15T06:27:30.728Z,2304.00
2018-04-15T06:28:30.763Z,2212.00
2018-04-15T06:29:31.008Z,2072.00
2018-04-15T06:30:30.672Z,1904.00
2018-04-15T06:31:30.658Z,1748.00
2018-04-15T06:32:30.647Z,1648.00
2018-04-15T06:33:30.637Z,1584.00
2018-04-15T06:34:30.723Z,1536.00
2018-04-15T06:35:30.595Z,1528.00
2018-04-15T06:36:30.582Z,1588.00
2018-04-15T06:37:30.556Z,1668.00
2018-04-15T06:38:30.539Z,1744.00
2018-04-15T06:39:30.622Z,1840.00
2018-04-15T06:40:30.552Z,2004.00
2018-04-15T06:41:30.590Z,2264.00
2018-04-15T06:42:30.565Z,2532.00
2018-04-15T06:43:30.453Z,2708.00
2018-04-15T06:44:30.524Z,2788.00
2018-04-15T06:45:30.416Z,2700.00
2018-04-15T06:46:30.451Z,2544.00
2018-04-15T06:47:30.382Z,2440.00
2018-04-15T06:49:30.348Z,2372.00
2018-04-15T06:50:30.349Z,2360.00
2018-04-15T06:51:30.315Z,2412.00
2018-04-15T06:53:30.375Z,2496.00
2018-04-15T06:54:30.284Z,2432.00
2018-04-15T06:55:30.269Z,2244.00
2018-04-15T06:56:30.250Z,2200.00
2018-04-15T06:57:30.281Z,2032.00
2018-04-15T06:58:30.211Z,1648.00
2018-04-15T06:59:30.556Z,1432.00
2018-04-15T07:02:30.495Z,1456.00
2018-04-15T07:03:30.108Z,1620.00
2018-04-15T07:04:31.314Z,1892.00
2018-04-15T07:05:30.138Z,2180.00
2018-04-15T07:06:30.055Z,2524.00
2018-04-15T07:07:30.047Z,2892.00
2018-04-15T07:08:30.862Z,3324.00
2018-04-15T07:09:30.008Z,3844.00
2018-04-15T07:10:30.004Z,4424.00
2018-04-15T07:11:30.078Z,4868.00
2018-04-15T07:12:29.950Z,5084.00
2018-04-15T07:13:30.037Z,5076.00
2018-04-15T07:14:29.933Z,4876.00
2018-04-15T07:15:29.897Z,4616.00
2018-04-15T07:16:29.952Z,4460.00
2018-04-15T07:17:29.911Z,4432.00
2018-04-15T07:18:29.855Z,4388.00
2018-04-15T07:19:29.932Z,4344.00
2018-04-15T07:20:29.830Z,4352.00
2018-04-15T07:21:29.926Z,4468.00
2018-04-15T07:22:29.786Z,4612.00
2018-04-15T07:23:30.220Z,4812.00
2018-04-15T07:24:29.744Z,5048.00
2018-04-15T07:25:29.725Z,5220.00
2018-04-15T07:27:29.797Z,5896.00
2018-04-15T07:28:29.679Z,6108.00
2018-04-15T07:29:29.706Z,6156.00
2018-04-15T07:30:29.669Z,6116.00
2018-04-15T07:31:29.615Z,6040.00
2018-04-15T07:32:29.603Z,5992.00
2018-04-15T07:33:29.659Z,5988.00
2018-04-15T07:34:30.065Z,5948.00
2018-04-15T07:35:29.608Z,5884.00
2018-04-15T07:37:29.522Z,5628.00
2018-04-15T07:38:29.510Z,5520.00
2018-04-15T07:39:29.490Z,5460.00
2018-04-15T07:40:29.472Z,5432.00
2018-04-15T07:41:29.504Z,5448.00
2018-04-15T07:42:29.443Z,5460.00
2018-04-15T07:43:29.430Z,5496.00
2018-04-15T07:44:29.409Z,5512.00
2018-04-15T07:45:29.390Z,5520.00
2018-04-15T07:46:29.395Z,5512.00
2018-04-15T07:47:29.410Z,5484.00
2018-04-15T07:48:29.344Z,5460.00
2018-04-15T07:49:29.334Z,5460.00
2018-04-15T07:50:29.339Z,5476.00
2018-04-15T07:51:29.615Z,5508.00
2018-04-15T07:52:29.393Z,5516.00
2018-04-15T07:53:29.712Z,5500.00
2018-04-15T07:54:29.245Z,5496.00
2018-04-15T07:55:29.602Z,5464.00
2018-04-15T07:56:29.226Z,5444.00
2018-04-15T07:57:29.297Z,5384.00
2018-04-15T07:58:29.282Z,5332.00
2018-04-15T07:59:29.228Z,5276.00
2018-04-15T08:01:29.448Z,5236.00
2018-04-15T08:02:29.121Z,5256.00
2018-04-15T08:04:29.102Z,5372.00
2018-04-15T08:05:29.128Z,5424.00
2018-04-15T08:06:29.067Z,5488.00
2018-04-15T08:07:29.397Z,5544.00
2018-04-15T08:08:29.026Z,5572.00
2018-04-15T08:09:29.015Z,5596.00
2018-04-15T08:10:29.025Z,5620.00
2018-04-15T08:11:28.977Z,5676.00
2018-04-15T08:12:29.268Z,5688.00
2018-04-15T08:13:29.002Z,5680.00
2018-04-15T08:14:28.938Z,5616.00
2018-04-15T08:15:28.916Z,5568.00
2018-04-15T08:16:28.968Z,5416.00
2018-04-15T08:17:28.888Z,5312.00
2018-04-15T08:19:29.212Z,5276.00
2018-04-15T08:21:28.920Z,5096.00
2018-04-15T08:22:28.816Z,5016.00
2018-04-15T08:23:28.798Z,5044.00
2018-04-15T08:24:28.842Z,5120.00
2018-04-15T08:25:29.070Z,5120.00
2018-04-15T08:26:29.063Z,5096.00
2018-04-15T08:27:28.758Z,5052.00
2018-04-15T08:30:28.751Z,5232.00
2018-04-15T08:31:28.693Z,5260.00
2018-04-15T08:32:28.670Z,5172.00
2018-04-15T08:34:28.650Z,4960.00
2018-04-15T08:35:28.650Z,4904.00
2018-04-15T08:37:30.269Z,4784.00
2018-04-15T08:38:28.574Z,4668.00
2018-04-15T08:39:28.567Z,4528.00
2018-04-15T08:40:28.542Z,4396.00
2018-04-15T08:41:28.531Z,4360.00
2018-04-15T08:42:28.513Z,4392.00
2018-04-15T08:44:28.831Z,4764.00
2018-04-15T08:46:28.452Z,4748.00
2018-04-15T08:47:28.433Z,4832.00
2018-04-15T08:48:28.424Z,4984.00
2018-04-15T08:49:28.407Z,5056.00
2018-04-15T08:50:28.544Z,4932.00
2018-04-15T08:51:28.423Z,4812.00
2018-04-15T08:52:28.358Z,4664.00
2018-04-15T08:53:28.350Z,4580.00
2018-04-15T08:54:28.338Z,4464.00
2018-04-15T08:55:28.308Z,4300.00
2018-04-15T08:56:28.311Z,4228.00
2018-04-15T08:57:28.338Z,4372.00
2018-04-15T08:59:28.255Z,4648.00
2018-04-15T09:00:28.238Z,4672.00
2018-04-15T09:01:28.224Z,4816.00
2018-04-15T09:02:28.205Z,4960.00
2018-04-15T09:04:28.307Z,5120.00
2018-04-15T09:05:28.186Z,5256.00
2018-04-15T09:06:28.149Z,5432.00
2018-04-15T09:07:28.133Z,5520.00
2018-04-15T09:08:28.213Z,5520.00
2018-04-15T09:09:28.408Z,5432.00
2018-04-15T09:11:28.120Z,5436.00
2018-04-15T09:12:28.058Z,5464.00
2018-04-15T09:13:28.053Z,5520.00
2018-04-15T09:14:28.349Z,5520.00
2018-04-15T09:15:28.015Z,5524.00
2018-04-15T09:18:28.026Z,5732.00
2018-04-15T09:19:27.952Z,5876.00
2018-04-15T09:20:27.936Z,5936.00
2018-04-15T09:22:28.015Z,5900.00
2018-04-15T09:23:27.948Z,5880.00
2018-04-15T09:24:27.877Z,5968.00
2018-04-15T09:25:28.012Z,6056.00
2018-04-15T09:26:28.165Z,6128.00
2018-04-15T09:27:27.829Z,6152.00
2018-04-15T09:28:27.883Z,6184.00
2018-04-15T09:29:27.955Z,6328.00
2018-04-15T09:30:27.780Z,6540.00
2018-04-15T09:31:27.794Z,6652.00
2018-04-15T09:33:28.374Z,6988.00
2018-04-15T09:35:27.817Z,6732.00
2018-04-15T09:36:27.910Z,6548.00
2018-04-15T09:37:27.686Z,6532.00
2018-04-15T09:38:27.671Z,6616.00
2018-04-15T09:39:27.974Z,6720.00
2018-04-15T09:40:27.648Z,6828.00
2018-04-15T09:41:27.846Z,7060.00
2018-04-15T09:42:27.680Z,7288.00
2018-04-15T09:43:27.607Z,7480.00
2018-04-15T09:44:27.591Z,7548.00
2018-04-15T09:45:27.574Z,7616.00
2018-04-15T09:46:27.608Z,7748.00
2018-04-15T09:47:28.847Z,7940.00
2018-04-15T09:48:27.522Z,8252.00
2018-04-15T09:49:27.510Z,8732.00
2018-04-15T09:50:27.718Z,9168.00
2018-04-15T09:51:30.819Z,9544.00
2018-04-15T09:52:28.239Z,9416.00
2018-04-15T09:53:28.869Z,8940.00
2018-04-15T09:54:27.442Z,8596.00
2018-04-15T09:55:27.420Z,8556.00
2018-04-15T09:57:27.715Z,8908.00
2018-04-15T09:58:27.384Z,9088.00
2018-04-15T09:59:27.424Z,9140.00
2018-04-15T10:00:27.375Z,9104.00
2018-04-15T10:01:27.340Z,9164.00
2018-04-15T10:03:27.615Z,9416.00
2018-04-15T10:05:28.544Z,9204.00
2018-04-15T10:06:27.420Z,8996.00
2018-04-15T10:07:27.573Z,8712.00
2018-04-15T10:08:27.240Z,8556.00
2018-04-15T10:10:27.521Z,9244.00
2018-04-15T10:11:27.409Z,9984.00
2018-04-15T10:13:27.374Z,11504.00
2018-04-15T10:14:27.205Z,12040.00
2018-04-15T10:15:27.342Z,12536.00
2018-04-15T10:16:27.689Z,12904.00
2018-04-15T10:17:27.266Z,13420.00
2018-04-15T10:18:27.096Z,13628.00
2018-04-15T10:19:27.294Z,13884.00
2018-04-15T10:20:27.310Z,13952.00
2018-04-15T10:21:27.066Z,14008.00
2018-04-15T10:22:27.095Z,14256.00
2018-04-15T10:23:27.034Z,14064.00
2018-04-15T10:24:27.374Z,14944.00
2018-04-15T10:25:27.008Z,16040.00
2018-04-15T10:26:27.278Z,16468.00
2018-04-15T10:27:26.980Z,15916.00
2018-04-15T10:28:27.016Z,15144.00
2018-04-15T10:29:26.955Z,14716.00
2018-04-15T10:30:26.990Z,14160.00
2018-04-15T10:32:26.915Z,14700.00
2018-04-15T10:33:27.202Z,13552.00
2018-04-15T10:35:26.891Z,11972.00
2018-04-15T10:36:26.913Z,11260.00
2018-04-15T10:37:26.850Z,10864.00
2018-04-15T10:38:26.838Z,9856.00
2018-04-15T10:39:26.828Z,9084.00
2018-04-15T10:40:26.820Z,9284.00
2018-04-15T10:41:26.801Z,9816.00
2018-04-15T10:42:26.840Z,9808.00
2018-04-15T10:43:26.783Z,10148.00
2018-04-15T10:44:27.072Z,10448.00
2018-04-15T10:45:26.747Z,9916.00
2018-04-15T10:46:26.740Z,10216.00
2018-04-15T10:47:26.738Z,11136.00
2018-04-15T10:48:26.781Z,11444.00
2018-04-15T10:49:26.712Z,10792.00
2018-04-15T10:50:26.692Z,10792.00
2018-04-15T10:51:26.682Z,11972.00
2018-04-15T10:52:26.673Z,11836.00
2018-04-15T10:53:26.653Z,13036.00
2018-04-15T10:54:26.689Z,13512.00
2018-04-15T10:55:26.628Z,12384.00
2018-04-15T10:56:26.921Z,12284.00
2018-04-15T10:57:26.646Z,11524.00
2018-04-15T10:58:26.601Z,10384.00
2018-04-15T10:59:26.593Z,10424.00
2018-04-15T11:00:26.618Z,10884.00
2018-04-15T11:01:26.562Z,11348.00
2018-04-15T11:03:26.839Z,12400.00
2018-04-15T11:04:26.582Z,12196.00
2018-04-15T11:06:26.555Z,12356.00
2018-04-15T11:07:26.497Z,11356.00
2018-04-15T11:09:26.762Z,10800.00
2018-04-15T11:10:26.550Z,11024.00
2018-04-15T11:11:26.437Z,13492.00
2018-04-15T11:12:26.484Z,14764.00
2018-04-15T11:13:26.417Z,15076.00
2018-04-15T11:14:26.703Z,14332.00
2018-04-15T11:15:26.715Z,15452.00
2018-04-15T11:16:26.383Z,15268.00
2018-04-15T11:18:26.454Z,15436.00
2018-04-15T11:19:26.339Z,15496.00
2018-04-15T11:20:26.329Z,14852.00
2018-04-15T11:21:26.345Z,15404.00
2018-04-15T11:22:26.310Z,20096.00
2018-04-15T11:23:26.329Z,16752.00
2018-04-15T11:24:26.433Z,16404.00
2018-04-15T11:25:26.272Z,15576.00
2018-04-15T11:26:26.257Z,17056.00
2018-04-15T11:28:26.545Z,17952.00
2018-04-15T11:29:26.222Z,18944.00
2018-04-15T11:30:26.260Z,19232.00
2018-04-15T11:31:26.201Z,17984.00
2018-04-15T11:32:26.237Z,17952.00
2018-04-15T11:33:26.190Z,19488.00
2018-04-15T11:34:26.228Z,18240.00
2018-04-15T11:35:26.161Z,17728.00
2018-04-15T11:36:26.149Z,18176.00
2018-04-15T11:38:26.155Z,15812.00
2018-04-15T11:39:26.123Z,15292.00
2018-04-15T11:40:26.450Z,14100.00
2018-04-15T11:41:26.092Z,12432.00
2018-04-15T11:42:26.339Z,11700.00
2018-04-15T11:43:26.065Z,11312.00
2018-04-15T11:44:26.058Z,11692.00
2018-04-15T11:48:26.365Z,15088.00
2018-04-15T11:49:26.281Z,15860.00
2018-04-15T11:50:26.342Z,18208.00
2018-04-15T11:51:26.227Z,22688.00
2018-04-15T11:52:26.422Z,23456.00
2018-04-15T11:53:26.250Z,20544.00
2018-04-15T11:54:26.018Z,19072.00
2018-04-15T11:55:25.943Z,19616.00
2018-04-15T11:56:25.937Z,18944.00
2018-04-15T11:57:26.128Z,21120.00
2018-04-15T11:58:25.909Z,17824.00
2018-04-15T11:59:25.901Z,15636.00
2018-04-15T12:00:27.144Z,14204.00
2018-04-15T12:01:25.877Z,13436.00
2018-04-15T12:02:26.070Z,13632.00
2018-04-15T12:03:25.862Z,13120.00
2018-04-15T12:05:26.143Z,13296.00
2018-04-15T12:06:25.884Z,13580.00
2018-04-15T12:07:25.828Z,13432.00
2018-04-15T12:08:25.813Z,13508.00
2018-04-15T12:09:25.799Z,13384.00
2018-04-15T12:10:25.793Z,14512.00
2018-04-15T12:12:26.165Z,13920.00
2018-04-15T12:13:26.113Z,14004.00
2018-04-15T12:14:25.759Z,14520.00
2018-04-15T12:15:25.745Z,14948.00
2018-04-15T12:16:25.738Z,14808.00
2018-04-15T12:17:25.820Z,14112.00
2018-04-15T12:18:25.832Z,13808.00
2018-04-15T12:19:26.305Z,15228.00
2018-04-15T12:22:25.883Z,15416.00
2018-04-15T12:23:25.671Z,15388.00
2018-04-15T12:25:26.046Z,15300.00
2018-04-15T12:26:25.653Z,14080.00
2018-04-15T12:27:25.627Z,13024.00
2018-04-15T12:28:25.615Z,12736.00
2018-04-15T12:30:25.601Z,13992.00
2018-04-15T12:31:25.633Z,14704.00
2018-04-15T12:32:25.670Z,14820.00
2018-04-15T12:33:25.563Z,14616.00
2018-04-15T12:34:25.551Z,14972.00
2018-04-15T12:35:25.552Z,15332.00
2018-04-15T12:36:25.532Z,15576.00
2018-04-15T12:38:25.915Z,15368.00
2018-04-15T12:40:25.490Z,13992.00
2018-04-15T12:41:25.535Z,13464.00
2018-04-15T12:42:25.471Z,12880.00
2018-04-15T12:43:25.462Z,12680.00
2018-04-15T12:44:25.455Z,12772.00
2018-04-15T12:45:25.442Z,12804.00
2018-04-15T12:46:25.671Z,13676.00
2018-04-15T12:47:25.479Z,13520.00
2018-04-15T12:48:25.536Z,13188.00
2018-04-15T12:50:25.395Z,13052.00
2018-04-15T12:51:25.382Z,13608.00
2018-04-15T12:52:25.578Z,13244.00
2018-04-15T12:54:25.770Z,11904.00
2018-04-15T12:56:25.651Z,13040.00
2018-04-15T12:57:25.373Z,13192.00
2018-04-15T12:58:25.312Z,13528.00
2018-04-15T12:59:25.330Z,13132.00
2018-04-15T13:00:25.446Z,12596.00
2018-04-15T13:01:25.303Z,13152.00
2018-04-15T13:02:25.572Z,14580.00
2018-04-15T13:03:25.465Z,14296.00
2018-04-15T13:04:25.317Z,14140.00
2018-04-15T13:05:25.246Z,13884.00
2018-04-15T13:06:25.494Z,12936.00
2018-04-15T13:07:25.451Z,12204.00
2018-04-15T13:08:25.669Z,12340.00
2018-04-15T13:09:25.211Z,12628.00
2018-04-15T13:12:25.381Z,12508.00
2018-04-15T13:13:25.174Z,11952.00
2018-04-15T13:14:25.518Z,11596.00
2018-04-15T13:16:25.439Z,12196.00
2018-04-15T13:17:25.128Z,12700.00
2018-04-15T13:18:25.313Z,13256.00
2018-04-15T13:19:25.117Z,13848.00
2018-04-15T13:20:25.158Z,14128.00
2018-04-15T13:21:25.090Z,14972.00
2018-04-15T13:22:25.076Z,15852.00
2018-04-15T13:23:25.071Z,14812.00
2018-04-15T13:25:25.053Z,14440.00
2018-04-15T13:27:25.038Z,16128.00
2018-04-15T13:29:25.022Z,17472.00
2018-04-15T13:31:24.991Z,20000.00
2018-04-15T13:32:25.334Z,20608.00
2018-04-15T13:33:24.976Z,21664.00
2018-04-15T13:34:24.973Z,20896.00
2018-04-15T13:35:24.961Z,23904.00
2018-04-15T13:36:24.954Z,22976.00
2018-04-15T13:37:25.285Z,24544.00
2018-04-15T13:38:25.226Z,18528.00
2018-04-15T13:39:24.935Z,19040.00
2018-04-15T13:40:24.921Z,19392.00